Time;durP1;ratioP1;P1;durP2;ratioP2;P2;SDS_P1;SDS_P2;PMS_P1;PMS_P2;Temp;Humidity;BMP_temperature;BMP_pressure;BME280_temperature;BME280_humidity;BME280_pressure;Samples;Min_cycle;Max_cycle;Signal;HPM_P1;HPM_P2
2024/03/19 00:02:09;;;;;;;3.63;2.58;;;8.80;99.90;;;;;;4996200;28;20052;-76
2024/03/19 00:04:35;;;;;;;1.65;1.55;;;8.70;99.90;;;;;;5000588;28;20057;-76
2024/03/19 00:07:01;;;;;;;1.63;1.52;;;8.60;99.90;;;;;;5008402;28;20423;-76
2024/03/19 00:09:28;;;;;;;1.60;1.52;;;8.50;99.90;;;;;;5010139;28;20022;-76
2024/03/19 00:11:54;;;;;;;0.77;0.77;;;8.40;99.90;;;;;;5013101;28;20061;-76
2024/03/19 00:14:20;;;;;;;3.70;1.95;;;8.30;99.90;;;;;;5006599;28;20033;-76
2024/03/19 00:16:46;;;;;;;1.73;1.17;;;8.30;99.90;;;;;;5006599;28;20385;-76
2024/03/19 00:19:12;;;;;;;1.63;1.52;;;8.20;99.90;;;;;;5008002;28;20034;-76
2024/03/19 00:21:40;;;;;;;4.75;1.25;;;8.30;99.90;;;;;;5000937;28;20041;-76
2024/03/19 00:24:08;;;;;;;1.90;1.75;;;8.30;99.90;;;;;;5010013;28;20158;-76
2024/03/19 00:26:36;;;;;;;3.53;1.67;;;8.20;99.90;;;;;;5011005;28;20391;-76
2024/03/19 00:29:02;;;;;;;1.85;1.65;;;8.10;99.90;;;;;;5010526;28;20376;-76
2024/03/19 00:31:29;;;;;;;2.05;1.85;;;8.10;99.90;;;;;;5011022;28;20479;-76
2024/03/19 00:33:55;;;;;;;1.92;1.80;;;8.00;99.90;;;;;;5002555;28;20044;-76
2024/03/19 00:36:21;;;;;;;1.80;1.58;;;8.10;99.90;;;;;;5007687;28;20034;-76
2024/03/19 00:38:48;;;;;;;1.25;1.25;;;8.10;99.90;;;;;;5011673;28;20068;-76
2024/03/19 00:41:14;;;;;;;3.13;2.05;;;8.00;99.90;;;;;;5011722;28;20041;-76
2024/03/19 00:43:40;;;;;;;1.48;1.38;;;7.90;99.90;;;;;;5008507;28;20033;-76
2024/03/19 00:46:06;;;;;;;1.25;1.15;;;7.80;99.90;;;;;;5007501;28;20049;-76
2024/03/19 00:48:32;;;;;;;2.30;1.48;;;7.90;99.90;;;;;;5004672;28;20042;-75
2024/03/19 00:51:00;;;;;;;2.00;1.45;;;7.70;99.90;;;;;;4991216;28;20490;-75
2024/03/19 00:53:26;;;;;;;1.90;1.77;;;7.60;99.90;;;;;;5010794;28;20037;-75
2024/03/19 00:55:52;;;;;;;0.85;0.82;;;7.50;99.90;;;;;;5010621;28;20037;-75
2024/03/19 00:58:19;;;;;;;3.10;2.60;;;7.50;99.90;;;;;;5009694;28;20731;-75
2024/03/19 01:00:46;;;;;;;1.50;1.40;;;7.50;99.90;;;;;;5010414;28;20029;-76
2024/03/19 01:03:14;;;;;;;6.60;2.03;;;7.40;99.90;;;;;;4986235;28;20332;-76
2024/03/19 01:05:40;;;;;;;3.38;2.25;;;7.40;99.90;;;;;;4999431;28;20031;-75
2024/03/19 01:08:07;;;;;;;2.53;1.90;;;7.30;99.90;;;;;;5010016;28;20026;-75
2024/03/19 01:10:34;;;;;;;1.70;1.60;;;7.30;99.90;;;;;;5011678;28;20049;-75
2024/03/19 01:13:00;;;;;;;3.42;0.93;;;7.20;99.90;;;;;;5007279;28;20054;-76
2024/03/19 01:15:28;;;;;;;2.10;1.90;;;7.20;99.90;;;;;;5007243;28;20383;-76
2024/03/19 01:17:54;;;;;;;3.45;2.92;;;7.20;99.90;;;;;;5003976;28;20379;-75
2024/03/19 01:20:20;;;;;;;1.92;1.67;;;7.20;99.90;;;;;;5005083;28;20440;-75
2024/03/19 01:22:47;;;;;;;3.05;2.58;;;7.30;99.90;;;;;;5008104;28;20042;-75
2024/03/19 01:25:13;;;;;;;1.83;1.17;;;7.30;99.90;;;;;;5010485;28;20049;-76
2024/03/19 01:27:39;;;;;;;6.00;3.65;;;7.20;99.90;;;;;;5010857;28;20032;-75
2024/03/19 01:30:06;;;;;;;1.08;1.08;;;7.10;99.90;;;;;;5009095;28;20452;-76
2024/03/19 01:32:32;;;;;;;2.90;1.98;;;7.10;99.90;;;;;;5006032;28;20479;-76
2024/03/19 01:34:59;;;;;;;1.85;1.45;;;7.10;99.90;;;;;;5002576;28;20048;-76
2024/03/19 01:37:25;;;;;;;2.03;1.92;;;7.10;99.90;;;;;;5005912;28;20509;-75
2024/03/19 01:39:52;;;;;;;1.33;1.15;;;7.20;99.90;;;;;;5011614;28;20387;-75
2024/03/19 01:42:18;;;;;;;1.02;1.02;;;7.10;99.90;;;;;;5009152;28;20034;-75
2024/03/19 01:44:45;;;;;;;1.08;0.98;;;7.10;99.90;;;;;;5010020;28;20037;-75
2024/03/19 01:47:11;;;;;;;1.92;1.13;;;6.90;99.90;;;;;;5000367;28;20045;-75
2024/03/19 01:49:37;;;;;;;1.60;1.35;;;6.80;99.90;;;;;;5017435;28;20037;-76
2024/03/19 01:52:05;;;;;;;1.90;1.75;;;6.80;99.90;;;;;;5013146;28;20045;-75
2024/03/19 01:54:33;;;;;;;0.70;0.70;;;6.80;99.90;;;;;;5014503;28;20037;-76
2024/03/19 01:57:00;;;;;;;1.02;1.02;;;6.90;99.90;;;;;;5011149;28;20414;-75
2024/03/19 01:59:26;;;;;;;1.95;1.77;;;6.80;99.90;;;;;;5013080;28;20041;-75
2024/03/19 02:01:53;;;;;;;0.73;0.73;;;6.80;99.90;;;;;;4994588;28;20042;-76
2024/03/19 02:04:19;;;;;;;1.63;1.52;;;6.80;99.90;;;;;;5008661;28;20037;-75
2024/03/19 02:06:46;;;;;;;0.52;0.52;;;6.80;99.90;;;;;;5009861;28;20463;-76
2024/03/19 02:09:12;;;;;;;0.77;0.77;;;6.80;99.90;;;;;;5009720;28;20048;-76
2024/03/19 02:11:39;;;;;;;1.55;1.45;;;6.70;99.90;;;;;;4989587;28;20061;-75
2024/03/19 02:14:06;;;;;;;0.85;0.82;;;6.60;99.90;;;;;;4988166;28;20038;-76
2024/03/19 02:16:33;;;;;;;1.25;1.17;;;6.40;99.90;;;;;;4988011;28;20043;-75
2024/03/19 02:19:04;;;;;;;1.25;1.23;;;6.30;99.90;;;;;;4987222;28;20034;-76
2024/03/19 02:21:32;;;;;;;2.17;2.05;;;6.20;99.90;;;;;;4988015;28;20046;-76
2024/03/19 02:24:00;;;;;;;3.95;1.33;;;6.10;99.90;;;;;;4990189;28;20057;-76
2024/03/19 02:26:29;;;;;;;1.25;1.15;;;6.10;99.90;;;;;;4990927;28;20050;-76
2024/03/19 02:28:56;;;;;;;0.43;0.43;;;6.10;99.90;;;;;;4989773;28;20047;-76
2024/03/19 02:31:27;;;;;;;2.03;1.40;;;6.20;99.90;;;;;;4990428;28;20728;-76
2024/03/19 02:33:55;;;;;;;1.50;1.40;;;6.20;99.90;;;;;;4983227;28;20042;-76
2024/03/19 02:36:24;;;;;;;1.27;1.23;;;6.20;99.90;;;;;;4986563;28;20033;-76
2024/03/19 02:38:51;;;;;;;3.60;1.75;;;6.20;99.90;;;;;;4992756;28;20474;-76
2024/03/19 02:41:17;;;;;;;0.93;0.90;;;6.10;99.90;;;;;;4989326;28;20046;-76
2024/03/19 02:43:44;;;;;;;2.15;1.95;;;6.00;99.90;;;;;;4983997;28;20041;-75
2024/03/19 02:46:10;;;;;;;2.47;2.17;;;5.90;99.90;;;;;;4986524;28;20143;-75
2024/03/19 02:48:36;;;;;;;2.33;1.95;;;5.90;99.90;;;;;;4989341;28;20035;-75
2024/03/19 02:51:03;;;;;;;2.00;1.63;;;5.80;99.90;;;;;;4973361;28;20119;-75
2024/03/19 02:53:30;;;;;;;4.15;3.15;;;5.70;99.90;;;;;;4992282;28;20522;-75
2024/03/19 02:55:56;;;;;;;4.18;3.28;;;5.70;99.90;;;;;;4991143;28;20583;-75
2024/03/19 02:58:22;;;;;;;2.83;2.47;;;5.60;99.90;;;;;;4989186;28;20045;-75
2024/03/19 03:00:55;;;;;;;3.83;2.67;;;5.60;99.90;;;;;;4990075;28;20038;-75
2024/03/19 03:03:21;;;;;;;1.33;1.25;;;5.60;99.90;;;;;;4989700;28;20042;-76
2024/03/19 03:05:47;;;;;;;1.85;1.73;;;5.70;99.90;;;;;;4982559;28;20030;-75
2024/03/19 03:08:14;;;;;;;0.57;0.52;;;5.70;99.90;;;;;;4993956;28;20038;-75
2024/03/19 03:10:40;;;;;;;0.77;0.65;;;5.70;99.90;;;;;;4992133;28;20119;-75
2024/03/19 03:13:07;;;;;;;1.23;1.15;;;5.90;99.90;;;;;;5009105;28;20056;-76
2024/03/19 03:15:33;;;;;;;3.60;3.38;;;5.90;99.90;;;;;;5008224;28;20030;-75
2024/03/19 03:17:59;;;;;;;1.65;1.45;;;6.00;99.90;;;;;;5006970;28;20034;-75
2024/03/19 03:20:26;;;;;;;2.75;2.25;;;5.90;99.90;;;;;;5008821;28;20029;-75
2024/03/19 03:22:52;;;;;;;2.55;1.60;;;6.00;99.90;;;;;;5009113;28;20037;-75
2024/03/19 03:25:19;;;;;;;3.17;2.90;;;6.10;99.90;;;;;;5012730;28;20383;-75
2024/03/19 03:27:46;;;;;;;4.15;3.67;;;6.20;99.90;;;;;;5010385;28;20096;-75
2024/03/19 03:30:13;;;;;;;2.35;2.00;;;6.20;99.90;;;;;;5007526;28;20387;-75
2024/03/19 03:32:42;;;;;;;3.75;2.47;;;6.30;99.90;;;;;;5011225;28;20034;-75
2024/03/19 03:35:09;;;;;;;13.75;4.78;;;6.40;99.90;;;;;;5005034;28;20057;-75
2024/03/19 03:37:35;;;;;;;2.90;1.90;;;6.50;99.90;;;;;;5012750;28;20045;-75
2024/03/19 03:40:13;;;;;;;4.50;3.70;;;6.50;99.90;;;;;;5013294;28;20395;-75
2024/03/19 03:42:41;;;;;;;2.72;2.55;;;6.60;99.90;;;;;;5010909;28;20443;-76
2024/03/19 03:45:10;;;;;;;15.35;2.58;;;6.70;99.90;;;;;;5013165;28;20061;-76
2024/03/19 03:47:37;;;;;;;34.58;7.50;;;6.70;99.90;;;;;;5007291;28;20479;-75
2024/03/19 03:50:05;;;;;;;3.20;3.00;;;6.80;99.90;;;;;;5005882;28;20026;-75
2024/03/19 03:52:32;;;;;;;2.85;2.53;;;6.90;99.90;;;;;;5006242;28;20046;-75
2024/03/19 03:55:00;;;;;;;4.13;3.05;;;7.00;99.90;;;;;;5007074;28;20029;-76
2024/03/19 03:57:26;;;;;;;6.78;3.72;;;7.00;99.90;;;;;;5011766;28;20045;-76
2024/03/19 03:59:52;;;;;;;3.80;3.55;;;7.10;99.90;;;;;;5011648;28;20049;-75
2024/03/19 04:02:19;;;;;;;8.15;2.75;;;7.20;99.90;;;;;;5008371;28;20045;-75
2024/03/19 04:04:45;;;;;;;3.75;3.47;;;7.30;99.90;;;;;;5003497;28;20034;-75
2024/03/19 04:07:11;;;;;;;3.90;3.33;;;7.40;99.90;;;;;;5004683;28;20490;-76
2024/03/19 04:09:37;;;;;;;1.45;1.23;;;7.40;99.90;;;;;;5012110;28;20030;-76
2024/03/19 04:12:03;;;;;;;7.47;4.03;;;7.40;99.90;;;;;;4995419;28;20057;-75
2024/03/19 04:14:30;;;;;;;3.53;2.83;;;7.50;99.90;;;;;;5009090;28;20375;-75
2024/03/19 04:16:56;;;;;;;6.03;3.53;;;7.50;99.90;;;;;;5006685;28;20046;-76
2024/03/19 04:19:22;;;;;;;6.53;3.65;;;7.50;99.90;;;;;;5006581;28;20041;-75
2024/03/19 04:21:48;;;;;;;3.33;3.03;;;7.60;99.90;;;;;;5002022;28;20034;-75
2024/03/19 04:24:14;;;;;;;2.33;2.15;;;7.60;99.90;;;;;;5005656;28;20471;-76
2024/03/19 04:26:40;;;;;;;3.67;3.45;;;7.70;99.90;;;;;;4983773;28;20049;-76
2024/03/19 04:29:14;;;;;;;4.80;4.40;;;7.70;99.90;;;;;;5011265;28;20040;-76
2024/03/19 04:31:41;;;;;;;6.53;4.00;;;7.70;99.90;;;;;;5008425;28;20034;-76
2024/03/19 04:34:11;;;;;;;3.90;3.63;;;7.70;99.90;;;;;;5004212;28;20030;-75
2024/03/19 04:36:38;;;;;;;16.13;7.82;;;7.70;99.90;;;;;;5006610;28;20049;-75
2024/03/19 04:39:10;;;;;;;7.22;4.13;;;7.70;99.90;;;;;;5012132;28;20375;-75
2024/03/19 04:41:39;;;;;;;7.60;4.63;;;7.80;99.90;;;;;;5011552;28;20402;-76
2024/03/19 04:44:06;;;;;;;9.38;5.18;;;7.80;99.90;;;;;;5010838;28;20391;-75
2024/03/19 04:46:32;;;;;;;3.92;3.50;;;7.80;99.90;;;;;;5007943;28;20046;-76
2024/03/19 04:48:59;;;;;;;4.20;3.80;;;7.70;99.90;;;;;;5012748;28;20038;-75
2024/03/19 04:51:26;;;;;;;4.18;3.20;;;7.70;99.90;;;;;;5003121;28;20033;-76
2024/03/19 04:53:52;;;;;;;2.67;2.47;;;7.60;99.90;;;;;;5010887;28;20049;-77
2024/03/19 04:56:20;;;;;;;8.45;5.07;;;7.60;99.90;;;;;;5008934;28;20064;-76
2024/03/19 04:58:47;;;;;;;1.92;1.83;;;7.60;99.90;;;;;;5010143;28;20034;-77
2024/03/19 05:01:15;;;;;;;7.70;2.90;;;7.50;99.90;;;;;;5010000;28;20034;-76
2024/03/19 05:03:41;;;;;;;4.82;3.65;;;7.50;99.90;;;;;;5004280;28;20034;-76
2024/03/19 05:06:09;;;;;;;2.45;2.25;;;7.60;99.90;;;;;;5001850;28;20034;-76
2024/03/19 05:08:39;;;;;;;6.20;2.50;;;7.40;99.90;;;;;;5009077;28;20034;-76
2024/03/19 05:11:05;;;;;;;2.70;2.47;;;7.40;99.90;;;;;;5010545;28;20049;-75
2024/03/19 05:13:31;;;;;;;11.70;3.55;;;7.40;99.90;;;;;;5011046;28;20041;-75
2024/03/19 05:15:58;;;;;;;4.43;4.05;;;7.50;99.90;;;;;;5008868;28;20021;-75
2024/03/19 05:18:24;;;;;;;8.05;6.88;;;7.40;99.90;;;;;;5006663;28;20030;-75
2024/03/19 05:20:51;;;;;;;4.80;4.40;;;7.40;99.90;;;;;;5004980;28;20383;-76
2024/03/19 05:23:17;;;;;;;4.03;3.63;;;7.40;99.90;;;;;;5012809;28;20049;-76
2024/03/19 05:25:43;;;;;;;1.67;1.58;;;7.40;99.90;;;;;;5007115;28;20046;-75
2024/03/19 05:28:10;;;;;;;6.75;4.75;;;7.40;99.90;;;;;;4976363;28;20105;-76
2024/03/19 05:30:36;;;;;;;2.65;2.45;;;7.40;99.90;;;;;;5009650;28;20399;-76
2024/03/19 05:33:03;;;;;;;2.47;2.17;;;7.40;99.90;;;;;;5001204;28;20404;-75
2024/03/19 05:35:30;;;;;;;3.78;3.45;;;7.40;99.90;;;;;;5004535;28;20476;-76
2024/03/19 05:37:56;;;;;;;4.22;3.90;;;7.40;99.90;;;;;;5005483;28;20045;-75
2024/03/19 05:40:22;;;;;;;5.00;2.80;;;7.40;99.90;;;;;;5007039;28;20038;-75
2024/03/19 05:42:48;;;;;;;2.72;2.40;;;7.40;99.90;;;;;;5010580;28;20046;-75
2024/03/19 05:45:15;;;;;;;3.72;3.20;;;7.40;99.90;;;;;;5007621;28;20037;-75
2024/03/19 05:47:42;;;;;;;3.58;3.30;;;7.40;99.90;;;;;;5005646;28;20045;-74
2024/03/19 05:50:08;;;;;;;1.77;1.67;;;7.40;99.90;;;;;;5009303;28;20041;-72
2024/03/19 05:52:35;;;;;;;6.63;4.05;;;7.50;99.90;;;;;;5004477;28;20069;-75
2024/03/19 05:55:02;;;;;;;7.63;3.53;;;7.50;99.90;;;;;;5008156;28;20053;-75
2024/03/19 05:57:29;;;;;;;4.43;3.75;;;7.50;99.90;;;;;;5004651;28;20040;-74
2024/03/19 05:59:55;;;;;;;6.68;4.10;;;7.60;99.90;;;;;;5004860;28;20033;-74
2024/03/19 06:02:21;;;;;;;6.88;3.75;;;7.60;99.90;;;;;;5006094;28;20041;-74
2024/03/19 06:04:47;;;;;;;3.90;2.13;;;7.60;99.90;;;;;;5009813;28;20042;-74
2024/03/19 06:07:14;;;;;;;3.15;2.90;;;7.60;99.90;;;;;;5002561;28;20479;-75
2024/03/19 06:09:43;;;;;;;2.83;2.63;;;7.70;99.90;;;;;;5010578;28;20033;-74
2024/03/19 06:12:10;;;;;;;13.32;4.68;;;7.70;99.90;;;;;;5010070;28;20045;-75
2024/03/19 06:14:36;;;;;;;3.28;2.33;;;7.70;99.90;;;;;;5005345;28;20061;-74
2024/03/19 06:17:03;;;;;;;1.52;1.48;;;7.70;99.90;;;;;;5006064;28;20057;-74
2024/03/19 06:19:29;;;;;;;3.10;2.47;;;7.80;99.90;;;;;;5002904;28;20041;-75
2024/03/19 06:21:56;;;;;;;2.80;2.38;;;7.80;99.90;;;;;;5004344;28;20033;-75
2024/03/19 06:24:22;;;;;;;2.63;2.03;;;7.80;99.90;;;;;;5011549;28;20045;-74
2024/03/19 06:26:48;;;;;;;4.35;3.28;;;7.90;99.90;;;;;;5008392;28;20029;-74
2024/03/19 06:29:15;;;;;;;2.25;2.00;;;7.90;99.90;;;;;;5010217;28;20034;-75
2024/03/19 06:31:41;;;;;;;4.13;3.00;;;7.90;99.90;;;;;;5010296;28;20046;-75
2024/03/19 06:34:08;;;;;;;5.00;3.05;;;7.90;99.90;;;;;;5019301;28;20101;-74
2024/03/19 06:36:35;;;;;;;5.30;3.10;;;8.00;99.90;;;;;;5013743;28;20265;-75
2024/03/19 06:39:03;;;;;;;4.07;3.75;;;8.00;99.90;;;;;;5007695;28;20045;-75
2024/03/19 06:41:34;;;;;;;2.83;2.60;;;8.10;99.90;;;;;;5011706;28;20038;-74
2024/03/19 06:44:01;;;;;;;4.57;3.28;;;8.20;99.90;;;;;;4996988;28;20048;-74
2024/03/19 06:46:27;;;;;;;8.43;4.82;;;8.20;99.90;;;;;;5010703;28;20049;-76
2024/03/19 06:48:54;;;;;;;5.03;2.78;;;8.20;99.90;;;;;;5009556;28;20034;-75
2024/03/19 06:51:20;;;;;;;2.50;2.30;;;8.20;99.90;;;;;;4989706;28;20387;-75
2024/03/19 06:53:46;;;;;;;9.48;4.90;;;8.30;99.90;;;;;;5002507;28;20046;-75
2024/03/19 06:56:12;;;;;;;3.03;2.88;;;8.30;99.90;;;;;;5023343;28;20045;-75
2024/03/19 06:58:38;;;;;;;2.03;1.90;;;8.30;99.90;;;;;;5017317;28;20457;-75
2024/03/19 07:01:05;;;;;;;2.28;2.05;;;8.30;99.90;;;;;;5014796;28;20501;-75
2024/03/19 07:03:31;;;;;;;4.90;4.30;;;8.40;99.90;;;;;;5006605;28;20030;-75
2024/03/19 07:05:57;;;;;;;6.07;2.75;;;8.40;99.90;;;;;;5003890;28;20034;-75
2024/03/19 07:08:26;;;;;;;3.47;2.30;;;8.50;99.90;;;;;;5010993;28;20045;-75
2024/03/19 07:10:57;;;;;;;13.70;5.50;;;8.50;99.90;;;;;;5014314;28;20414;-75
2024/03/19 07:13:24;;;;;;;3.22;2.15;;;8.60;99.90;;;;;;5011308;28;20057;-76
2024/03/19 07:15:50;;;;;;;8.55;2.25;;;8.70;99.90;;;;;;5010790;28;20061;-76
2024/03/19 07:18:20;;;;;;;3.90;3.58;;;8.80;99.90;;;;;;5007886;28;20061;-75
2024/03/19 07:20:46;;;;;;;7.32;5.07;;;8.80;99.90;;;;;;5003860;28;20053;-76
2024/03/19 07:23:12;;;;;;;7.97;3.55;;;8.90;99.90;;;;;;5011251;28;20038;-76
2024/03/19 07:25:38;;;;;;;5.10;3.97;;;8.90;99.90;;;;;;5013402;28;20036;-76
2024/03/19 07:28:05;;;;;;;4.53;4.10;;;9.00;99.90;;;;;;5012778;28;20383;-76
2024/03/19 07:30:31;;;;;;;4.43;2.58;;;9.10;99.90;;;;;;5014116;28;20218;-76
2024/03/19 07:32:59;;;;;;;3.70;3.28;;;9.10;99.90;;;;;;4999516;28;20042;-76
2024/03/19 07:35:25;;;;;;;2.83;2.47;;;9.20;99.90;;;;;;5001465;28;20049;-76
2024/03/19 07:37:51;;;;;;;8.90;4.13;;;9.20;99.90;;;;;;5017407;28;20391;-76
2024/03/19 07:40:20;;;;;;;4.63;3.92;;;9.30;99.90;;;;;;5013259;28;20053;-76
2024/03/19 07:42:50;;;;;;;2.45;2.03;;;9.40;99.90;;;;;;5011032;28;20042;-76
2024/03/19 07:45:17;;;;;;;7.95;5.78;;;9.50;99.90;;;;;;5015832;28;20057;-76
2024/03/19 07:47:43;;;;;;;4.75;3.90;;;9.60;99.90;;;;;;5006793;28;20030;-76
2024/03/19 07:50:10;;;;;;;10.52;4.95;;;9.70;99.90;;;;;;5009713;28;20385;-76
2024/03/19 07:52:37;;;;;;;7.65;3.40;;;9.80;99.90;;;;;;5011303;28;20030;-76
2024/03/19 07:55:04;;;;;;;5.43;3.42;;;9.80;99.90;;;;;;5014106;28;20037;-77
2024/03/19 07:57:30;;;;;;;7.03;3.50;;;9.80;99.90;;;;;;5010714;28;20056;-76
2024/03/19 07:59:58;;;;;;;2.58;2.38;;;10.00;99.90;;;;;;5012234;28;20041;-76
2024/03/19 08:02:24;;;;;;;2.05;1.90;;;10.10;99.90;;;;;;5018148;28;20048;-76
2024/03/19 08:04:51;;;;;;;7.50;3.35;;;10.10;1.00;;;;;;5009785;28;20042;-75
2024/03/19 08:07:17;;;;;;;7.65;4.05;;;10.20;1.00;;;;;;5011166;28;20030;-76
2024/03/19 08:09:45;;;;;;;4.00;2.42;;;10.30;1.00;;;;;;5013594;28;20034;-75
2024/03/19 08:12:11;;;;;;;13.25;4.38;;;10.30;1.00;;;;;;5013422;28;20080;-76
2024/03/19 08:14:37;;;;;;;4.57;3.53;;;10.30;99.90;;;;;;5010817;28;20053;-76
2024/03/19 08:17:03;;;;;;;9.57;2.10;;;10.30;99.90;;;;;;5003118;28;20113;-76
2024/03/19 08:19:30;;;;;;;4.18;3.70;;;10.40;99.90;;;;;;5004402;28;20030;-76
2024/03/19 08:21:56;;;;;;;2.92;2.55;;;10.40;99.90;;;;;;5009319;28;20053;-76
2024/03/19 08:24:22;;;;;;;4.15;3.38;;;10.50;99.90;;;;;;5012797;28;20046;-76
2024/03/19 08:26:49;;;;;;;5.00;3.35;;;10.40;99.90;;;;;;5011115;28;20030;-76
2024/03/19 08:29:15;;;;;;;2.42;2.22;;;10.40;99.90;;;;;;5010444;28;20410;-76
2024/03/19 08:31:41;;;;;;;2.67;2.42;;;10.60;99.90;;;;;;4999225;28;20045;-76
2024/03/19 08:34:08;;;;;;;5.70;4.55;;;10.60;99.90;;;;;;5001169;28;20039;-76
2024/03/19 08:36:34;;;;;;;3.92;2.90;;;10.90;99.90;;;;;;4998492;28;20062;-76
2024/03/19 08:39:00;;;;;;;3.75;3.15;;;11.00;99.90;;;;;;5012772;28;20029;-76
2024/03/19 08:41:26;;;;;;;4.28;2.08;;;11.10;99.90;;;;;;5011777;28;20030;-76
2024/03/19 08:43:53;;;;;;;2.40;1.67;;;11.20;99.90;;;;;;5011671;28;20376;-76
2024/03/19 08:46:20;;;;;;;7.10;3.55;;;11.10;99.90;;;;;;5005839;28;20487;-76
2024/03/19 08:48:47;;;;;;;4.85;2.10;;;11.00;99.90;;;;;;5008707;28;20037;-76
2024/03/19 08:51:14;;;;;;;3.05;2.65;;;11.00;99.90;;;;;;4999420;28;20360;-76
2024/03/19 08:53:41;;;;;;;2.53;2.33;;;10.90;99.90;;;;;;5010533;28;20892;-76
2024/03/19 08:56:08;;;;;;;3.15;2.90;;;11.10;99.90;;;;;;5010619;28;20415;-76
2024/03/19 08:58:36;;;;;;;1.80;1.70;;;11.10;99.90;;;;;;5007852;28;20041;-76
2024/03/19 09:01:03;;;;;;;2.15;1.95;;;11.20;86.60;;;;;;5007804;28;20045;-75
2024/03/19 09:03:29;;;;;;;3.08;2.78;;;11.30;90.80;;;;;;5004357;28;20088;-76
2024/03/19 09:05:56;;;;;;;7.78;2.35;;;11.70;43.10;;;;;;4999063;28;20025;-76
2024/03/19 09:08:23;;;;;;;3.22;2.47;;;11.90;1.00;;;;;;5009210;28;20045;-76
2024/03/19 09:10:53;;;;;;;2.25;1.90;;;11.80;1.00;;;;;;5011137;28;20038;-76
2024/03/19 09:13:20;;;;;;;2.57;2.03;;;12.00;1.00;;;;;;5011624;28;20057;-76
2024/03/19 09:15:46;;;;;;;2.95;1.30;;;12.10;1.00;;;;;;5005660;28;20387;-76
2024/03/19 09:18:13;;;;;;;1.75;1.65;;;12.30;1.00;;;;;;5007050;28;20045;-76
2024/03/19 09:20:39;;;;;;;3.72;3.17;;;12.80;1.00;;;;;;5003721;28;20034;-76
2024/03/19 09:23:06;;;;;;;2.38;0.98;;;13.30;99.90;;;;;;5008408;28;20034;-76
2024/03/19 09:25:32;;;;;;;6.47;2.38;;;13.50;99.90;;;;;;5009247;28;20033;-76
2024/03/19 09:27:58;;;;;;;3.42;2.45;;;12.90;99.90;;;;;;5007227;28;20042;-76
2024/03/19 09:30:25;;;;;;;7.90;3.60;;;12.70;1.00;;;;;;5007887;28;20041;-76
2024/03/19 09:32:52;;;;;;;2.20;1.50;;;13.00;1.00;;;;;;5006185;28;20483;-76
2024/03/19 09:35:19;;;;;;;2.22;1.13;;;13.20;99.90;;;;;;4998637;28;20053;-76
2024/03/19 09:37:46;;;;;;;3.05;1.42;;;13.30;99.90;;;;;;5003066;28;20030;-77
2024/03/19 09:40:14;;;;;;;3.50;2.25;;;13.30;99.90;;;;;;5010603;28;20443;-76
2024/03/19 09:42:41;;;;;;;0.95;0.75;;;13.40;99.90;;;;;;5010525;28;20049;-76
2024/03/19 09:45:26;;;;;;;3.00;1.40;;;13.40;99.90;;;;;;4986666;28;20053;-76
2024/03/19 09:47:55;;;;;;;1.27;1.10;;;13.30;99.90;;;;;;5007191;28;20053;-75
2024/03/19 09:50:23;;;;;;;2.65;1.63;;;13.20;99.90;;;;;;5005586;28;20039;-75
2024/03/19 09:52:50;;;;;;;1.42;0.88;;;13.00;99.90;;;;;;5003606;28;20124;-75
2024/03/19 09:55:18;;;;;;;0.75;0.60;;;13.10;99.90;;;;;;5010294;28;20064;-75
2024/03/19 09:57:46;;;;;;;0.95;0.90;;;13.60;99.90;;;;;;4991478;28;20391;-75
2024/03/19 10:00:23;;;;;;;1.40;1.08;;;13.70;96.50;;;;;;5006189;28;20467;-75
2024/03/19 10:02:51;;;;;;;2.80;1.38;;;13.90;99.90;;;;;;4989371;28;20387;-75
2024/03/19 10:05:17;;;;;;;1.73;1.63;;;14.10;71.40;;;;;;4998505;28;20038;-75
2024/03/19 10:07:44;;;;;;;0.52;0.52;;;14.10;99.90;;;;;;5002604;28;20782;-75
2024/03/19 10:10:15;;;;;;;1.38;0.90;;;14.20;38.40;;;;;;5007810;28;20029;-75
2024/03/19 10:12:41;;;;;;;3.53;1.27;;;14.30;56.70;;;;;;5007133;28;20058;-76
2024/03/19 10:15:08;;;;;;;2.25;1.05;;;14.10;7.80;;;;;;5008706;28;20061;-75
2024/03/19 10:17:35;;;;;;;3.97;1.40;;;14.20;59.30;;;;;;5001708;28;20030;-74
2024/03/19 10:20:04;;;;;;;3.00;1.27;;;14.40;1.00;;;;;;5002421;28;20037;-74
2024/03/19 10:22:30;;;;;;;1.45;0.45;;;14.40;1.00;;;;;;5004448;28;20037;-74
2024/03/19 10:24:57;;;;;;;1.30;1.27;;;14.30;1.00;;;;;;5012535;28;20033;-74
2024/03/19 10:27:23;;;;;;;1.25;0.77;;;14.40;1.00;;;;;;4992005;28;20038;-74
2024/03/19 10:29:49;;;;;;;2.53;1.65;;;14.70;1.00;;;;;;4991872;28;20045;-74
2024/03/19 10:32:15;;;;;;;5.20;2.60;;;14.40;1.00;;;;;;5007784;28;20030;-75
2024/03/19 10:34:44;;;;;;;1.33;1.23;;;14.10;18.30;;;;;;5001844;28;20053;-75
2024/03/19 10:37:12;;;;;;;1.95;1.08;;;14.10;9.00;;;;;;5000525;28;20045;-74
2024/03/19 10:39:41;;;;;;;6.18;2.40;;;13.80;1.00;;;;;;5006505;28;20475;-74
2024/03/19 10:42:12;;;;;;;1.30;1.25;;;13.50;48.70;;;;;;5008305;28;20029;-74
2024/03/19 10:44:39;;;;;;;;;;;13.40;99.90;;;;;;5006835;28;20042;-74
2024/03/19 10:47:08;;;;;;;3.05;2.17;;;13.50;99.90;;;;;;5007236;28;19933;-74
2024/03/19 10:49:35;;;;;;;8.18;3.10;;;13.80;99.90;;;;;;5002158;28;20387;-74
2024/03/19 10:52:08;;;;;;;2.78;1.63;;;13.70;99.90;;;;;;5005447;28;20037;-75
2024/03/19 10:54:39;;;;;;;4.22;2.00;;;13.80;99.90;;;;;;5008999;28;20391;-74
2024/03/19 10:57:09;;;;;;;6.65;3.70;;;13.80;99.90;;;;;;5009112;28;20030;-74
2024/03/19 10:59:37;;;;;;;5.87;3.43;;;13.80;99.90;;;;;;4987459;28;20038;-74
2024/03/19 11:02:07;;;;;;;8.95;3.58;;;13.80;99.90;;;;;;5004894;28;20030;-74
2024/03/19 11:04:36;;;;;;;3.30;2.15;;;13.90;99.90;;;;;;5005090;28;20121;-74
2024/03/19 11:07:02;;;;;;;2.63;1.83;;;13.80;99.90;;;;;;5002013;28;20034;-74
2024/03/19 11:09:30;;;;;;;2.47;2.28;;;13.90;99.90;;;;;;5006149;28;20034;-74
2024/03/19 11:12:01;;;;;;;2.55;1.90;;;13.90;99.90;;;;;;5008099;28;20348;-74
2024/03/19 11:14:29;;;;;;;8.30;2.65;;;14.00;96.80;;;;;;5005825;28;20069;-74
2024/03/19 11:16:55;;;;;;;4.40;3.35;;;13.90;97.00;;;;;;5005124;28;20045;-74
2024/03/19 11:19:23;;;;;;;6.72;2.65;;;14.10;82.10;;;;;;5006439;28;20041;-74
2024/03/19 11:21:53;;;;;;;1.23;1.13;;;14.40;1.00;;;;;;5003898;28;20030;-74
2024/03/19 11:24:26;;;;;;;5.18;2.72;;;14.70;1.00;;;;;;5013944;28;20038;-74
2024/03/19 11:27:00;;;;;;;6.75;3.13;;;14.60;1.00;;;;;;5010486;28;20116;-74
2024/03/19 11:29:28;;;;;;;4.03;1.65;;;14.50;1.00;;;;;;5011684;28;20034;-74
2024/03/19 11:32:00;;;;;;;5.72;1.40;;;14.30;1.00;;;;;;5008554;28;20041;-74
2024/03/19 11:34:27;;;;;;;4.90;3.67;;;14.20;1.00;;;;;;5000414;28;20057;-74
2024/03/19 11:36:55;;;;;;;2.05;1.95;;;14.50;1.00;;;;;;5008911;28;20037;-74
2024/03/19 11:39:22;;;;;;;4.13;2.50;;;14.70;1.00;;;;;;4989317;28;20030;-75
2024/03/19 11:41:49;;;;;;;4.22;1.90;;;15.00;1.00;;;;;;5013270;28;20029;-74
2024/03/19 11:44:19;;;;;;;9.02;2.40;;;15.30;99.90;;;;;;5011741;28;20053;-74
2024/03/19 11:46:47;;;;;;;2.63;1.55;;;15.60;99.90;;;;;;5003374;28;20033;-74
2024/03/19 11:49:21;;;;;;;1.95;0.75;;;16.10;99.90;;;;;;4996383;28;20053;-73
2024/03/19 11:52:04;;;;;;;1.60;1.50;;;16.50;99.90;;;;;;5009317;28;20041;-74
2024/03/19 11:54:35;;;;;;;4.53;1.45;;;16.70;99.90;;;;;;5012490;28;20058;-74
2024/03/19 11:57:02;;;;;;;1.23;0.82;;;16.90;27.50;;;;;;4996320;28;20030;-73
2024/03/19 11:59:31;;;;;;;2.25;1.08;;;16.80;1.00;;;;;;5013546;28;20379;-75
2024/03/19 12:01:58;;;;;;;1.13;1.02;;;16.70;24.50;;;;;;5003148;28;20036;-74
2024/03/19 12:04:31;;;;;;;1.40;1.30;;;16.60;1.00;;;;;;5014989;28;20057;-74
2024/03/19 12:06:58;;;;;;;0.85;0.65;;;16.20;1.00;;;;;;4999836;28;20029;-74
2024/03/19 12:09:30;;;;;;;2.20;2.00;;;15.90;1.00;;;;;;4994848;28;20494;-74
2024/03/19 12:11:56;;;;;;;1.10;1.00;;;16.00;1.00;;;;;;4995420;28;20046;-74
2024/03/19 12:14:26;;;;;;;0.47;0.47;;;16.20;1.00;;;;;;5011759;28;20049;-75
2024/03/19 12:16:53;;;;;;;0.80;0.80;;;16.30;1.00;;;;;;5006262;28;20391;-75
2024/03/19 12:19:20;;;;;;;0.63;0.60;;;16.40;1.00;;;;;;5002754;28;20160;-74
2024/03/19 12:21:49;;;;;;;1.55;0.80;;;16.50;1.00;;;;;;5005411;28;20033;-74
2024/03/19 12:24:18;;;;;;;0.40;0.40;;;16.80;1.00;;;;;;5012948;28;20498;-74
2024/03/19 12:26:47;;;;;;;0.30;0.30;;;17.00;1.00;;;;;;5008644;28;20037;-74
2024/03/19 12:29:16;;;;;;;1.02;0.95;;;16.60;1.00;;;;;;5008641;28;20046;-75
2024/03/19 12:32:03;;;;;;;0.60;0.40;;;16.50;1.00;;;;;;5009361;28;20037;-74
2024/03/19 12:37:17;;;;;;;1.98;0.52;;;16.70;1.00;;;;;;5008557;28;20041;-75
2024/03/19 12:39:44;;;;;;;0.20;0.20;;;17.00;99.90;;;;;;5012495;28;20391;-75
2024/03/19 12:42:13;;;;;;;0.38;0.30;;;16.90;1.00;;;;;;5012169;28;20029;-75
2024/03/19 12:44:39;;;;;;;1.25;1.05;;;17.00;1.00;;;;;;5011031;28;20049;-75
2024/03/19 12:47:13;;;;;;;0.30;0.30;;;17.20;1.00;;;;;;5007899;28;20034;-74
2024/03/19 12:49:43;;;;;;;5.20;0.80;;;17.30;99.90;;;;;;5001685;28;20030;-74
2024/03/19 12:52:10;;;;;;;1.55;1.20;;;17.50;99.90;;;;;;5000137;28;20046;-75
2024/03/19 12:54:36;;;;;;;0.43;0.40;;;17.70;99.90;;;;;;5012907;28;20049;-74
2024/03/19 12:57:06;;;;;;;0.30;0.30;;;17.80;99.90;;;;;;5010701;28;20034;-74
2024/03/19 12:59:33;;;;;;;0.65;0.55;;;17.80;99.90;;;;;;5011245;28;20039;-73